sensor_id;sensor_type;location;lat;lon;timestamp;temperature;humidity
54518;DHT22;40423;53.176;6.002;2022-09-23T00:01:06;11.70;99.90
54518;DHT22;40423;53.176;6.002;2022-09-23T00:03:33;11.70;99.90
54518;DHT22;40423;53.176;6.002;2022-09-23T00:06:05;11.70;99.90
54518;DHT22;40423;53.176;6.002;2022-09-23T00:08:31;11.70;99.90
54518;DHT22;40423;53.176;6.002;2022-09-23T00:11:02;11.60;99.90
54518;DHT22;40423;53.176;6.002;2022-09-23T00:13:28;11.60;99.90
54518;DHT22;40423;53.176;6.002;2022-09-23T00:15:54;11.60;99.90
54518;DHT22;40423;53.176;6.002;2022-09-23T00:18:19;11.70;99.90
54518;DHT22;40423;53.176;6.002;2022-09-23T00:20:46;11.70;99.90
54518;DHT22;40423;53.176;6.002;2022-09-23T00:23:11;11.60;99.90
54518;DHT22;40423;53.176;6.002;2022-09-23T00:25:37;11.70;99.90
54518;DHT22;40423;53.176;6.002;2022-09-23T00:28:03;11.70;99.90
54518;DHT22;40423;53.176;6.002;2022-09-23T00:30:28;11.70;99.90
54518;DHT22;40423;53.176;6.002;2022-09-23T00:32:54;11.70;99.90
54518;DHT22;40423;53.176;6.002;2022-09-23T00:35:21;11.70;99.90
54518;DHT22;40423;53.176;6.002;2022-09-23T00:37:47;11.70;99.90
54518;DHT22;40423;53.176;6.002;2022-09-23T00:40:13;11.70;99.90
54518;DHT22;40423;53.176;6.002;2022-09-23T00:42:57;11.70;99.90
54518;DHT22;40423;53.176;6.002;2022-09-23T00:45:23;11.70;99.90
54518;DHT22;40423;53.176;6.002;2022-09-23T00:47:54;11.70;99.90
54518;DHT22;40423;53.176;6.002;2022-09-23T00:50:32;11.70;99.90
54518;DHT22;40423;53.176;6.002;2022-09-23T00:53:05;11.70;99.90
54518;DHT22;40423;53.176;6.002;2022-09-23T00:55:43;11.70;99.90
54518;DHT22;40423;53.176;6.002;2022-09-23T00:58:12;11.70;99.90
54518;DHT22;40423;53.176;6.002;2022-09-23T01:00:39;11.70;99.90
54518;DHT22;40423;53.176;6.002;2022-09-23T01:03:06;11.70;99.90
54518;DHT22;40423;53.176;6.002;2022-09-23T01:05:33;11.60;99.90
54518;DHT22;40423;53.176;6.002;2022-09-23T01:08:00;11.70;99.90
54518;DHT22;40423;53.176;6.002;2022-09-23T01:10:32;11.70;99.90
54518;DHT22;40423;53.176;6.002;2022-09-23T01:18:26;11.70;99.90
54518;DHT22;40423;53.176;6.002;2022-09-23T01:21:08;11.70;99.90
54518;DHT22;40423;53.176;6.002;2022-09-23T01:26:53;11.70;99.90
54518;DHT22;40423;53.176;6.002;2022-09-23T01:29:45;11.70;99.90
54518;DHT22;40423;53.176;6.002;2022-09-23T01:37:54;11.70;99.90
54518;DHT22;40423;53.176;6.002;2022-09-23T01:46:09;11.70;99.90
54518;DHT22;40423;53.176;6.002;2022-09-23T01:48:53;11.70;99.90
54518;DHT22;40423;53.176;6.002;2022-09-23T01:51:33;11.60;99.90
54518;DHT22;40423;53.176;6.002;2022-09-23T01:54:04;11.60;99.90
54518;DHT22;40423;53.176;6.002;2022-09-23T01:56:39;11.60;99.90
54518;DHT22;40423;53.176;6.002;2022-09-23T01:59:14;11.60;99.90
54518;DHT22;40423;53.176;6.002;2022-09-23T02:04:15;11.50;99.90
54518;DHT22;40423;53.176;6.002;2022-09-23T02:06:54;11.50;99.90
54518;DHT22;40423;53.176;6.002;2022-09-23T02:09:27;11.40;99.90
54518;DHT22;40423;53.176;6.002;2022-09-23T02:11:59;11.40;99.90
54518;DHT22;40423;53.176;6.002;2022-09-23T02:14:50;11.40;99.90
54518;DHT22;40423;53.176;6.002;2022-09-23T02:18:08;11.40;99.90
54518;DHT22;40423;53.176;6.002;2022-09-23T02:20:09;11.30;99.90
54518;DHT22;40423;53.176;6.002;2022-09-23T02:23:13;11.30;99.90
54518;DHT22;40423;53.176;6.002;2022-09-23T02:26:11;11.30;99.90
54518;DHT22;40423;53.176;6.002;2022-09-23T02:34:20;11.10;99.90
54518;DHT22;40423;53.176;6.002;2022-09-23T02:37:00;11.10;99.90
54518;DHT22;40423;53.176;6.002;2022-09-23T02:39:37;11.00;99.90
54518;DHT22;40423;53.176;6.002;2022-09-23T02:42:07;11.00;99.90
54518;DHT22;40423;53.176;6.002;2022-09-23T02:44:35;11.00;99.90
54518;DHT22;40423;53.176;6.002;2022-09-23T02:47:01;11.00;99.90
54518;DHT22;40423;53.176;6.002;2022-09-23T02:49:30;10.90;99.90
54518;DHT22;40423;53.176;6.002;2022-09-23T02:52:00;10.90;99.90
54518;DHT22;40423;53.176;6.002;2022-09-23T02:54:29;10.90;99.90
54518;DHT22;40423;53.176;6.002;2022-09-23T02:56:59;10.90;99.90
54518;DHT22;40423;53.176;6.002;2022-09-23T02:59:25;10.90;99.90
54518;DHT22;40423;53.176;6.002;2022-09-23T03:18:13;10.60;99.90
54518;DHT22;40423;53.176;6.002;2022-09-23T03:20:47;10.60;99.90
54518;DHT22;40423;53.176;6.002;2022-09-23T03:23:20;10.60;99.90
54518;DHT22;40423;53.176;6.002;2022-09-23T03:25:51;10.60;99.90
54518;DHT22;40423;53.176;6.002;2022-09-23T03:28:19;10.50;99.90
54518;DHT22;40423;53.176;6.002;2022-09-23T03:30:52;10.50;99.90
54518;DHT22;40423;53.176;6.002;2022-09-23T03:33:22;10.50;99.90
54518;DHT22;40423;53.176;6.002;2022-09-23T03:36:04;10.40;99.90
54518;DHT22;40423;53.176;6.002;2022-09-23T03:39:15;10.40;99.90
54518;DHT22;40423;53.176;6.002;2022-09-23T03:41:47;10.40;99.90
54518;DHT22;40423;53.176;6.002;2022-09-23T03:44:16;10.40;99.90
54518;DHT22;40423;53.176;6.002;2022-09-23T03:46:42;10.40;99.90
54518;DHT22;40423;53.176;6.002;2022-09-23T03:49:16;10.30;99.90
54518;DHT22;40423;53.176;6.002;2022-09-23T03:51:42;10.30;99.90
54518;DHT22;40423;53.176;6.002;2022-09-23T03:54:08;10.30;99.90
54518;DHT22;40423;53.176;6.002;2022-09-23T03:56:34;10.30;99.90
54518;DHT22;40423;53.176;6.002;2022-09-23T03:59:00;10.30;99.90
54518;DHT22;40423;53.176;6.002;2022-09-23T04:01:26;10.30;99.90
54518;DHT22;40423;53.176;6.002;2022-09-23T04:03:51;10.30;99.90
54518;DHT22;40423;53.176;6.002;2022-09-23T04:06:18;10.30;99.90
54518;DHT22;40423;53.176;6.002;2022-09-23T04:08:44;10.30;99.90
54518;DHT22;40423;53.176;6.002;2022-09-23T04:11:09;10.30;99.90
54518;DHT22;40423;53.176;6.002;2022-09-23T04:13:35;10.20;99.90
54518;DHT22;40423;53.176;6.002;2022-09-23T04:16:01;10.20;99.90
54518;DHT22;40423;53.176;6.002;2022-09-23T04:18:27;10.30;99.90
54518;DHT22;40423;53.176;6.002;2022-09-23T04:20:57;10.20;99.90
54518;DHT22;40423;53.176;6.002;2022-09-23T04:23:24;10.20;99.90
54518;DHT22;40423;53.176;6.002;2022-09-23T04:25:51;10.20;99.90
54518;DHT22;40423;53.176;6.002;2022-09-23T04:28:18;10.20;99.90
54518;DHT22;40423;53.176;6.002;2022-09-23T04:30:44;10.20;99.90
54518;DHT22;40423;53.176;6.002;2022-09-23T04:33:11;10.20;99.90
54518;DHT22;40423;53.176;6.002;2022-09-23T04:35:37;10.20;99.90
54518;DHT22;40423;53.176;6.002;2022-09-23T04:38:04;10.20;99.90
54518;DHT22;40423;53.176;6.002;2022-09-23T04:40:30;10.20;99.90
54518;DHT22;40423;53.176;6.002;2022-09-23T04:42:56;10.30;99.90
54518;DHT22;40423;53.176;6.002;2022-09-23T04:45:22;10.20;99.90
54518;DHT22;40423;53.176;6.002;2022-09-23T04:47:48;10.20;99.90
54518;DHT22;40423;53.176;6.002;2022-09-23T04:50:14;10.20;99.90
54518;DHT22;40423;53.176;6.002;2022-09-23T04:52:40;10.30;99.90
54518;DHT22;40423;53.176;6.002;2022-09-23T04:55:06;10.30;99.90
54518;DHT22;40423;53.176;6.002;2022-09-23T04:57:32;10.30;99.90
54518;DHT22;40423;53.176;6.002;2022-09-23T04:59:59;10.30;99.90
54518;DHT22;40423;53.176;6.002;2022-09-23T05:02:25;10.20;99.90
54518;DHT22;40423;53.176;6.002;2022-09-23T05:04:51;10.30;99.90
54518;DHT22;40423;53.176;6.002;2022-09-23T05:07:17;10.30;99.90
54518;DHT22;40423;53.176;6.002;2022-09-23T05:09:44;10.20;99.90
54518;DHT22;40423;53.176;6.002;2022-09-23T05:12:10;10.30;99.90
54518;DHT22;40423;53.176;6.002;2022-09-23T05:14:36;10.30;99.90
54518;DHT22;40423;53.176;6.002;2022-09-23T05:17:04;10.30;99.90
54518;DHT22;40423;53.176;6.002;2022-09-23T05:19:30;10.20;99.90
54518;DHT22;40423;53.176;6.002;2022-09-23T05:21:55;10.30;99.90
54518;DHT22;40423;53.176;6.002;2022-09-23T05:24:21;10.30;99.90
54518;DHT22;40423;53.176;6.002;2022-09-23T05:26:48;10.30;99.90
54518;DHT22;40423;53.176;6.002;2022-09-23T05:29:14;10.30;99.90
54518;DHT22;40423;53.176;6.002;2022-09-23T05:31:40;10.30;99.90
54518;DHT22;40423;53.176;6.002;2022-09-23T05:34:06;10.30;99.90
54518;DHT22;40423;53.176;6.002;2022-09-23T05:36:33;10.30;99.90
54518;DHT22;40423;53.176;6.002;2022-09-23T05:38:59;10.30;99.90
54518;DHT22;40423;53.176;6.002;2022-09-23T05:41:25;10.30;99.90
54518;DHT22;40423;53.176;6.002;2022-09-23T05:43:52;10.30;99.90
54518;DHT22;40423;53.176;6.002;2022-09-23T05:46:24;10.30;99.90
54518;DHT22;40423;53.176;6.002;2022-09-23T05:48:53;10.30;99.90
54518;DHT22;40423;53.176;6.002;2022-09-23T05:51:21;10.30;99.90
54518;DHT22;40423;53.176;6.002;2022-09-23T05:53:48;10.30;99.90
54518;DHT22;40423;53.176;6.002;2022-09-23T05:56:16;10.50;99.90
54518;DHT22;40423;53.176;6.002;2022-09-23T05:58:43;10.40;99.90
54518;DHT22;40423;53.176;6.002;2022-09-23T06:01:10;10.30;99.90
54518;DHT22;40423;53.176;6.002;2022-09-23T06:03:38;10.40;99.90
54518;DHT22;40423;53.176;6.002;2022-09-23T06:06:05;10.40;99.90
54518;DHT22;40423;53.176;6.002;2022-09-23T06:08:30;10.40;99.90
54518;DHT22;40423;53.176;6.002;2022-09-23T06:11:03;10.40;99.90
54518;DHT22;40423;53.176;6.002;2022-09-23T06:13:34;10.50;99.90
54518;DHT22;40423;53.176;6.002;2022-09-23T06:16:04;10.50;99.90
54518;DHT22;40423;53.176;6.002;2022-09-23T06:18:30;10.50;99.90
54518;DHT22;40423;53.176;6.002;2022-09-23T06:20:59;10.60;99.90
54518;DHT22;40423;53.176;6.002;2022-09-23T06:23:25;10.50;99.90
54518;DHT22;40423;53.176;6.002;2022-09-23T06:25:51;10.60;99.90
54518;DHT22;40423;53.176;6.002;2022-09-23T06:28:16;10.60;99.90
54518;DHT22;40423;53.176;6.002;2022-09-23T06:30:45;11.00;99.90
54518;DHT22;40423;53.176;6.002;2022-09-23T06:33:13;10.70;99.90
54518;DHT22;40423;53.176;6.002;2022-09-23T06:35:41;10.70;99.90
54518;DHT22;40423;53.176;6.002;2022-09-23T06:38:07;10.80;99.90
54518;DHT22;40423;53.176;6.002;2022-09-23T06:40:35;10.70;99.90
54518;DHT22;40423;53.176;6.002;2022-09-23T06:43:01;10.70;99.90
54518;DHT22;40423;53.176;6.002;2022-09-23T06:45:27;10.80;99.90
54518;DHT22;40423;53.176;6.002;2022-09-23T06:47:54;10.80;99.90
54518;DHT22;40423;53.176;6.002;2022-09-23T06:50:24;10.80;99.90
54518;DHT22;40423;53.176;6.002;2022-09-23T06:52:54;10.80;99.90
54518;DHT22;40423;53.176;6.002;2022-09-23T06:55:24;10.90;99.90
54518;DHT22;40423;53.176;6.002;2022-09-23T06:57:51;10.90;99.90
54518;DHT22;40423;53.176;6.002;2022-09-23T07:00:17;11.00;99.90
54518;DHT22;40423;53.176;6.002;2022-09-23T07:02:43;11.00;99.90
54518;DHT22;40423;53.176;6.002;2022-09-23T07:05:09;11.10;99.90
54518;DHT22;40423;53.176;6.002;2022-09-23T07:07:38;11.20;99.90
54518;DHT22;40423;53.176;6.002;2022-09-23T07:10:05;11.20;99.90
54518;DHT22;40423;53.176;6.002;2022-09-23T07:12:32;11.30;99.90
54518;DHT22;40423;53.176;6.002;2022-09-23T07:14:58;11.30;99.90
54518;DHT22;40423;53.176;6.002;2022-09-23T07:17:24;11.40;99.90
54518;DHT22;40423;53.176;6.002;2022-09-23T07:19:50;11.50;99.90
54518;DHT22;40423;53.176;6.002;2022-09-23T07:22:23;11.60;99.90
54518;DHT22;40423;53.176;6.002;2022-09-23T07:24:53;11.60;99.90
54518;DHT22;40423;53.176;6.002;2022-09-23T07:27:26;11.70;99.90
54518;DHT22;40423;53.176;6.002;2022-09-23T07:29:52;11.70;99.90
54518;DHT22;40423;53.176;6.002;2022-09-23T07:32:20;11.80;99.90
54518;DHT22;40423;53.176;6.002;2022-09-23T07:34:46;11.80;99.90
54518;DHT22;40423;53.176;6.002;2022-09-23T07:37:13;11.80;99.90
54518;DHT22;40423;53.176;6.002;2022-09-23T07:39:38;11.80;99.90
54518;DHT22;40423;53.176;6.002;2022-09-23T07:42:06;11.80;99.90
54518;DHT22;40423;53.176;6.002;2022-09-23T07:44:32;11.80;99.90
54518;DHT22;40423;53.176;6.002;2022-09-23T07:46:59;11.90;99.90
54518;DHT22;40423;53.176;6.002;2022-09-23T07:49:25;11.90;99.90
54518;DHT22;40423;53.176;6.002;2022-09-23T07:51:51;12.00;99.90
54518;DHT22;40423;53.176;6.002;2022-09-23T07:54:17;12.00;99.90
54518;DHT22;40423;53.176;6.002;2022-09-23T07:56:44;12.00;99.90
54518;DHT22;40423;53.176;6.002;2022-09-23T07:59:15;12.10;99.90
54518;DHT22;40423;53.176;6.002;2022-09-23T08:01:46;12.20;99.90
54518;DHT22;40423;53.176;6.002;2022-09-23T08:04:19;12.20;99.90
54518;DHT22;40423;53.176;6.002;2022-09-23T08:06:49;12.30;99.90
54518;DHT22;40423;53.176;6.002;2022-09-23T08:09:17;12.30;99.90
54518;DHT22;40423;53.176;6.002;2022-09-23T08:11:43;12.40;99.90
54518;DHT22;40423;53.176;6.002;2022-09-23T08:14:10;12.40;99.90
54518;DHT22;40423;53.176;6.002;2022-09-23T08:16:38;12.50;99.90
54518;DHT22;40423;53.176;6.002;2022-09-23T08:19:04;12.60;99.90
54518;DHT22;40423;53.176;6.002;2022-09-23T08:21:30;12.60;99.90
54518;DHT22;40423;53.176;6.002;2022-09-23T08:23:56;12.60;99.90
54518;DHT22;40423;53.176;6.002;2022-09-23T08:26:22;12.70;99.90
54518;DHT22;40423;53.176;6.002;2022-09-23T08:28:50;12.70;99.90
54518;DHT22;40423;53.176;6.002;2022-09-23T08:31:18;12.80;99.90
54518;DHT22;40423;53.176;6.002;2022-09-23T08:33:44;12.90;99.90
54518;DHT22;40423;53.176;6.002;2022-09-23T08:36:10;13.00;99.90
54518;DHT22;40423;53.176;6.002;2022-09-23T08:38:36;13.10;99.90
54518;DHT22;40423;53.176;6.002;2022-09-23T08:43:54;13.50;99.90
54518;DHT22;40423;53.176;6.002;2022-09-23T08:46:25;13.50;99.90
54518;DHT22;40423;53.176;6.002;2022-09-23T08:48:53;13.60;99.90
54518;DHT22;40423;53.176;6.002;2022-09-23T08:51:34;13.60;99.90
54518;DHT22;40423;53.176;6.002;2022-09-23T08:54:00;13.70;99.90
54518;DHT22;40423;53.176;6.002;2022-09-23T08:56:28;13.70;99.90
54518;DHT22;40423;53.176;6.002;2022-09-23T08:59:11;13.70;99.90
54518;DHT22;40423;53.176;6.002;2022-09-23T09:01:48;13.70;99.90
54518;DHT22;40423;53.176;6.002;2022-09-23T09:10:14;13.80;99.90
54518;DHT22;40423;53.176;6.002;2022-09-23T09:12:44;13.80;99.90
54518;DHT22;40423;53.176;6.002;2022-09-23T09:20:21;13.90;99.90
54518;DHT22;40423;53.176;6.002;2022-09-23T09:27:56;13.90;99.90
54518;DHT22;40423;53.176;6.002;2022-09-23T09:30:23;14.00;99.90
54518;DHT22;40423;53.176;6.002;2022-09-23T09:32:58;14.00;99.90
54518;DHT22;40423;53.176;6.002;2022-09-23T09:35:34;14.00;99.90
54518;DHT22;40423;53.176;6.002;2022-09-23T09:38:02;14.10;99.90
54518;DHT22;40423;53.176;6.002;2022-09-23T09:40:28;14.10;99.90
54518;DHT22;40423;53.176;6.002;2022-09-23T09:42:54;14.20;99.90
54518;DHT22;40423;53.176;6.002;2022-09-23T09:53:26;14.50;99.90
54518;DHT22;40423;53.176;6.002;2022-09-23T09:56:06;14.60;99.90
54518;DHT22;40423;53.176;6.002;2022-09-23T09:58:54;14.60;99.90
54518;DHT22;40423;53.176;6.002;2022-09-23T10:01:26;14.70;99.90
54518;DHT22;40423;53.176;6.002;2022-09-23T10:03:55;14.70;99.90
54518;DHT22;40423;53.176;6.002;2022-09-23T10:06:24;14.70;99.90
54518;DHT22;40423;53.176;6.002;2022-09-23T10:11:30;14.70;99.90
54518;DHT22;40423;53.176;6.002;2022-09-23T10:16:25;14.90;99.90
54518;DHT22;40423;53.176;6.002;2022-09-23T10:18:51;14.90;99.90
54518;DHT22;40423;53.176;6.002;2022-09-23T10:21:22;14.90;99.90
54518;DHT22;40423;53.176;6.002;2022-09-23T10:23:56;15.00;99.90
54518;DHT22;40423;53.176;6.002;2022-09-23T10:26:40;15.00;99.90
54518;DHT22;40423;53.176;6.002;2022-09-23T10:31:47;15.10;99.90
54518;DHT22;40423;53.176;6.002;2022-09-23T10:34:22;15.10;99.90
54518;DHT22;40423;53.176;6.002;2022-09-23T10:37:12;15.20;99.90
54518;DHT22;40423;53.176;6.002;2022-09-23T10:39:39;15.20;99.90
54518;DHT22;40423;53.176;6.002;2022-09-23T10:42:44;15.20;99.90
54518;DHT22;40423;53.176;6.002;2022-09-23T10:45:40;15.30;99.90
54518;DHT22;40423;53.176;6.002;2022-09-23T10:51:15;15.30;99.90
54518;DHT22;40423;53.176;6.002;2022-09-23T10:56:49;15.30;99.90
54518;DHT22;40423;53.176;6.002;2022-09-23T11:07:23;15.30;99.90
54518;DHT22;40423;53.176;6.002;2022-09-23T11:10:12;15.40;99.90
54518;DHT22;40423;53.176;6.002;2022-09-23T11:20:43;15.50;99.90
54518;DHT22;40423;53.176;6.002;2022-09-23T11:26:38;15.50;99.90
54518;DHT22;40423;53.176;6.002;2022-09-23T11:29:15;15.50;99.90
54518;DHT22;40423;53.176;6.002;2022-09-23T11:37:28;15.60;99.90
54518;DHT22;40423;53.176;6.002;2022-09-23T11:45:25;15.70;99.90
54518;DHT22;40423;53.176;6.002;2022-09-23T11:48:11;15.70;99.90
54518;DHT22;40423;53.176;6.002;2022-09-23T11:50:45;15.70;99.90
54518;DHT22;40423;53.176;6.002;2022-09-23T11:53:33;15.70;99.90
54518;DHT22;40423;53.176;6.002;2022-09-23T11:58:38;15.70;99.90
54518;DHT22;40423;53.176;6.002;2022-09-23T12:01:14;15.80;99.90
54518;DHT22;40423;53.176;6.002;2022-09-23T12:03:52;15.80;99.90
54518;DHT22;40423;53.176;6.002;2022-09-23T12:06:42;15.70;99.90
54518;DHT22;40423;53.176;6.002;2022-09-23T12:09:23;15.70;99.90
54518;DHT22;40423;53.176;6.002;2022-09-23T12:18:01;15.80;99.90
54518;DHT22;40423;53.176;6.002;2022-09-23T12:26:04;15.80;99.90
54518;DHT22;40423;53.176;6.002;2022-09-23T12:28:39;15.70;99.90
54518;DHT22;40423;53.176;6.002;2022-09-23T12:31:16;15.80;99.90
54518;DHT22;40423;53.176;6.002;2022-09-23T12:33:51;15.80;99.90
54518;DHT22;40423;53.176;6.002;2022-09-23T12:36:25;15.80;99.90
54518;DHT22;40423;53.176;6.002;2022-09-23T12:39:04;15.80;99.90
54518;DHT22;40423;53.176;6.002;2022-09-23T12:46:46;15.80;99.90
54518;DHT22;40423;53.176;6.002;2022-09-23T12:49:45;15.80;99.90
54518;DHT22;40423;53.176;6.002;2022-09-23T12:52:17;15.80;99.90
54518;DHT22;40423;53.176;6.002;2022-09-23T12:54:50;15.80;99.90
54518;DHT22;40423;53.176;6.002;2022-09-23T13:02:42;15.70;99.90
54518;DHT22;40423;53.176;6.002;2022-09-23T13:05:57;15.70;99.90
54518;DHT22;40423;53.176;6.002;2022-09-23T13:08:44;15.70;99.90
54518;DHT22;40423;53.176;6.002;2022-09-23T13:11:22;15.60;99.90
54518;DHT22;40423;53.176;6.002;2022-09-23T13:13:50;15.70;99.90
54518;DHT22;40423;53.176;6.002;2022-09-23T13:19:04;15.60;99.90
54518;DHT22;40423;53.176;6.002;2022-09-23T13:26:39;15.60;99.90
54518;DHT22;40423;53.176;6.002;2022-09-23T13:31:54;15.50;99.90
54518;DHT22;40423;53.176;6.002;2022-09-23T13:34:26;15.60;99.90
54518;DHT22;40423;53.176;6.002;2022-09-23T13:36:54;15.60;99.90
54518;DHT22;40423;53.176;6.002;2022-09-23T13:39:25;15.60;99.90
54518;DHT22;40423;53.176;6.002;2022-09-23T13:41:55;15.60;99.90
54518;DHT22;40423;53.176;6.002;2022-09-23T13:44:26;15.50;99.90
54518;DHT22;40423;53.176;6.002;2022-09-23T13:46:57;15.50;99.90
54518;DHT22;40423;53.176;6.002;2022-09-23T13:49:31;15.60;99.90
54518;DHT22;40423;53.176;6.002;2022-09-23T13:51:57;15.60;99.90
54518;DHT22;40423;53.176;6.002;2022-09-23T13:54:31;15.60;99.90
54518;DHT22;40423;53.176;6.002;2022-09-23T13:56:59;15.60;99.90
54518;DHT22;40423;53.176;6.002;2022-09-23T13:59:30;15.60;99.90
54518;DHT22;40423;53.176;6.002;2022-09-23T14:02:09;15.50;99.90
54518;DHT22;40423;53.176;6.002;2022-09-23T14:04:35;15.60;99.90
54518;DHT22;40423;53.176;6.002;2022-09-23T14:07:02;15.50;99.90
54518;DHT22;40423;53.176;6.002;2022-09-23T14:09:29;15.50;99.90
54518;DHT22;40423;53.176;6.002;2022-09-23T14:11:58;15.50;99.90
54518;DHT22;40423;53.176;6.002;2022-09-23T14:14:26;15.50;99.90
54518;DHT22;40423;53.176;6.002;2022-09-23T14:16:52;15.60;99.90
54518;DHT22;40423;53.176;6.002;2022-09-23T14:19:21;15.60;99.90
54518;DHT22;40423;53.176;6.002;2022-09-23T14:21:54;15.60;99.90
54518;DHT22;40423;53.176;6.002;2022-09-23T14:26:54;15.60;99.90
54518;DHT22;40423;53.176;6.002;2022-09-23T14:29:32;15.60;99.90
54518;DHT22;40423;53.176;6.002;2022-09-23T14:32:12;15.70;99.90
54518;DHT22;40423;53.176;6.002;2022-09-23T14:34:51;15.70;99.90
54518;DHT22;40423;53.176;6.002;2022-09-23T14:40:07;15.80;99.90
54518;DHT22;40423;53.176;6.002;2022-09-23T14:42:38;15.80;99.90
54518;DHT22;40423;53.176;6.002;2022-09-23T14:45:07;15.80;99.90
54518;DHT22;40423;53.176;6.002;2022-09-23T14:47:37;15.80;99.90
54518;DHT22;40423;53.176;6.002;2022-09-23T14:50:04;15.80;99.90
54518;DHT22;40423;53.176;6.002;2022-09-23T14:52:49;15.80;99.90
54518;DHT22;40423;53.176;6.002;2022-09-23T14:55:16;15.80;99.90
54518;DHT22;40423;53.176;6.002;2022-09-23T14:57:42;15.80;99.90
54518;DHT22;40423;53.176;6.002;2022-09-23T15:00:18;15.70;99.90
54518;DHT22;40423;53.176;6.002;2022-09-23T15:02:57;15.70;99.90
54518;DHT22;40423;53.176;6.002;2022-09-23T15:05:50;15.70;99.90
54518;DHT22;40423;53.176;6.002;2022-09-23T15:08:24;15.80;99.90
54518;DHT22;40423;53.176;6.002;2022-09-23T15:10:52;15.80;99.90
54518;DHT22;40423;53.176;6.002;2022-09-23T15:13:21;15.80;99.90
54518;DHT22;40423;53.176;6.002;2022-09-23T15:15:51;15.70;99.90
54518;DHT22;40423;53.176;6.002;2022-09-23T15:20:52;15.70;99.90
54518;DHT22;40423;53.176;6.002;2022-09-23T15:26:09;15.70;99.90
54518;DHT22;40423;53.176;6.002;2022-09-23T15:28:36;15.70;99.90
54518;DHT22;40423;53.176;6.002;2022-09-23T15:31:01;15.60;99.90
54518;DHT22;40423;53.176;6.002;2022-09-23T15:33:30;15.60;99.90
54518;DHT22;40423;53.176;6.002;2022-09-23T15:35:56;15.60;99.90
54518;DHT22;40423;53.176;6.002;2022-09-23T15:38:23;15.50;99.90
54518;DHT22;40423;53.176;6.002;2022-09-23T15:40:51;15.50;99.90
54518;DHT22;40423;53.176;6.002;2022-09-23T15:43:23;15.50;99.90
54518;DHT22;40423;53.176;6.002;2022-09-23T15:45:56;15.50;99.90
54518;DHT22;40423;53.176;6.002;2022-09-23T15:48:35;15.40;99.90
54518;DHT22;40423;53.176;6.002;2022-09-23T15:51:04;15.40;99.90
54518;DHT22;40423;53.176;6.002;2022-09-23T15:53:31;15.40;99.90
54518;DHT22;40423;53.176;6.002;2022-09-23T15:55:57;15.40;99.90
54518;DHT22;40423;53.176;6.002;2022-09-23T15:58:23;15.40;99.90
54518;DHT22;40423;53.176;6.002;2022-09-23T16:00:54;15.40;99.90
54518;DHT22;40423;53.176;6.002;2022-09-23T16:03:21;15.30;99.90
54518;DHT22;40423;53.176;6.002;2022-09-23T16:05:50;15.30;99.90
54518;DHT22;40423;53.176;6.002;2022-09-23T16:08:16;15.30;99.90
54518;DHT22;40423;53.176;6.002;2022-09-23T16:10:45;15.30;99.90
54518;DHT22;40423;53.176;6.002;2022-09-23T16:13:12;15.30;99.90
54518;DHT22;40423;53.176;6.002;2022-09-23T16:15:39;15.30;99.90
54518;DHT22;40423;53.176;6.002;2022-09-23T16:18:05;15.30;99.90
54518;DHT22;40423;53.176;6.002;2022-09-23T16:20:34;15.30;99.90
54518;DHT22;40423;53.176;6.002;2022-09-23T16:23:06;15.20;99.90
54518;DHT22;40423;53.176;6.002;2022-09-23T16:25:34;15.20;99.90
54518;DHT22;40423;53.176;6.002;2022-09-23T16:28:03;15.20;99.90
54518;DHT22;40423;53.176;6.002;2022-09-23T16:30:30;15.20;99.90
54518;DHT22;40423;53.176;6.002;2022-09-23T16:32:56;15.20;99.90
54518;DHT22;40423;53.176;6.002;2022-09-23T16:35:25;15.20;99.90
54518;DHT22;40423;53.176;6.002;2022-09-23T16:37:52;15.20;99.90
54518;DHT22;40423;53.176;6.002;2022-09-23T16:40:19;15.20;99.90
54518;DHT22;40423;53.176;6.002;2022-09-23T16:42:50;15.20;99.90
54518;DHT22;40423;53.176;6.002;2022-09-23T16:45:19;15.20;99.90
54518;DHT22;40423;53.176;6.002;2022-09-23T16:47:49;15.20;99.90
54518;DHT22;40423;53.176;6.002;2022-09-23T16:50:17;15.10;99.90
54518;DHT22;40423;53.176;6.002;2022-09-23T16:52:44;15.10;99.90
54518;DHT22;40423;53.176;6.002;2022-09-23T16:55:11;15.20;99.90
54518;DHT22;40423;53.176;6.002;2022-09-23T16:57:38;15.10;99.90
54518;DHT22;40423;53.176;6.002;2022-09-23T17:00:13;15.10;99.90
54518;DHT22;40423;53.176;6.002;2022-09-23T17:02:59;15.10;99.90
54518;DHT22;40423;53.176;6.002;2022-09-23T17:05:44;15.10;99.90
54518;DHT22;40423;53.176;6.002;2022-09-23T17:08:10;15.10;99.90
54518;DHT22;40423;53.176;6.002;2022-09-23T17:10:40;15.10;99.90
54518;DHT22;40423;53.176;6.002;2022-09-23T17:13:06;15.10;99.90
54518;DHT22;40423;53.176;6.002;2022-09-23T17:15:36;15.10;99.90
54518;DHT22;40423;53.176;6.002;2022-09-23T17:18:07;15.00;99.90
54518;DHT22;40423;53.176;6.002;2022-09-23T17:20:33;15.00;99.90
54518;DHT22;40423;53.176;6.002;2022-09-23T17:22:59;15.00;99.90
54518;DHT22;40423;53.176;6.002;2022-09-23T17:25:25;15.00;99.90
54518;DHT22;40423;53.176;6.002;2022-09-23T17:27:51;15.00;99.90
54518;DHT22;40423;53.176;6.002;2022-09-23T17:30:17;15.00;99.90
54518;DHT22;40423;53.176;6.002;2022-09-23T17:32:43;14.90;99.90
54518;DHT22;40423;53.176;6.002;2022-09-23T17:35:09;14.90;99.90
54518;DHT22;40423;53.176;6.002;2022-09-23T17:37:35;14.90;99.90
54518;DHT22;40423;53.176;6.002;2022-09-23T17:40:02;14.80;99.90
54518;DHT22;40423;53.176;6.002;2022-09-23T17:42:28;14.80;99.90
54518;DHT22;40423;53.176;6.002;2022-09-23T17:44:53;14.80;99.90
54518;DHT22;40423;53.176;6.002;2022-09-23T17:47:26;14.80;99.90
54518;DHT22;40423;53.176;6.002;2022-09-23T17:49:52;14.70;99.90
54518;DHT22;40423;53.176;6.002;2022-09-23T17:52:18;14.70;99.90
54518;DHT22;40423;53.176;6.002;2022-09-23T17:54:44;14.70;99.90
54518;DHT22;40423;53.176;6.002;2022-09-23T17:57:13;14.70;99.90
54518;DHT22;40423;53.176;6.002;2022-09-23T17:59:39;14.70;99.90
54518;DHT22;40423;53.176;6.002;2022-09-23T18:02:04;14.70;99.90
54518;DHT22;40423;53.176;6.002;2022-09-23T18:04:30;14.70;99.90
54518;DHT22;40423;53.176;6.002;2022-09-23T18:06:56;14.60;99.90
54518;DHT22;40423;53.176;6.002;2022-09-23T18:09:22;14.60;99.90
54518;DHT22;40423;53.176;6.002;2022-09-23T18:11:48;14.60;99.90
54518;DHT22;40423;53.176;6.002;2022-09-23T18:14:17;14.60;99.90
54518;DHT22;40423;53.176;6.002;2022-09-23T18:16:45;14.60;99.90
54518;DHT22;40423;53.176;6.002;2022-09-23T18:19:16;14.60;99.90
54518;DHT22;40423;53.176;6.002;2022-09-23T18:21:47;14.60;99.90
54518;DHT22;40423;53.176;6.002;2022-09-23T18:24:15;14.50;99.90
54518;DHT22;40423;53.176;6.002;2022-09-23T18:26:41;14.50;99.90
54518;DHT22;40423;53.176;6.002;2022-09-23T18:29:07;14.50;99.90
54518;DHT22;40423;53.176;6.002;2022-09-23T18:31:35;14.50;99.90